Time;durP1;ratioP1;P1;durP2;ratioP2;P2;SDS_P1;SDS_P2;PMS_P1;PMS_P2;Temp;Humidity;BMP_temperature;BMP_pressure;BME280_temperature;BME280_humidity;BME280_pressure;Samples;Min_cycle;Max_cycle;Signal;HPM_P1;HPM_P2
2022/02/19 00:01:26;;;;;;;16.10;4.13;;;;;;;6.50;57.56;100285.69;5001090;28;20570;-45
2022/02/19 00:03:54;;;;;;;16.25;4.03;;;;;;;6.51;58.35;100281.91;5012387;28;20131;-44
2022/02/19 00:06:21;;;;;;;16.42;3.97;;;;;;;6.57;57.36;100290.91;5012403;28;20045;-45
2022/02/19 00:08:49;;;;;;;11.85;3.50;;;;;;;6.43;57.78;100286.97;5013120;28;20046;-45
2022/02/19 00:11:17;;;;;;;14.85;3.85;;;;;;;6.55;57.45;100284.94;5011472;28;20057;-44
2022/02/19 00:13:44;;;;;;;12.70;4.05;;;;;;;6.47;57.90;100309.72;5011561;28;20038;-44
2022/02/19 00:16:12;;;;;;;13.70;3.65;;;;;;;6.43;58.58;100314.84;5012056;28;20041;-43
2022/02/19 00:18:39;;;;;;;17.35;4.10;;;;;;;6.37;58.19;100322.09;5013216;28;20487;-44
2022/02/19 00:21:07;;;;;;;18.58;4.72;;;;;;;6.37;58.42;100322.09;5011939;28;20141;-44
2022/02/19 00:23:35;;;;;;;14.77;3.72;;;;;;;6.35;58.88;100326.94;4994914;28;20045;-44
2022/02/19 00:26:02;;;;;;;14.40;4.10;;;;;;;6.38;58.76;100323.72;4993526;28;20089;-45
2022/02/19 00:28:30;;;;;;;13.80;3.58;;;;;;;6.31;59.35;100330.38;4993399;28;20074;-42
2022/02/19 00:30:58;;;;;;;11.68;3.60;;;;;;;6.32;59.23;100348.25;4992331;28;20487;-43
2022/02/19 00:33:27;;;;;;;14.85;3.65;;;;;;;6.32;59.36;100338.22;5001182;28;20064;-45
2022/02/19 00:35:55;;;;;;;16.17;4.78;;;;;;;6.29;59.60;100354.97;4992146;28;20559;-43
2022/02/19 00:38:23;;;;;;;12.35;3.75;;;;;;;6.27;59.84;100370.63;4993475;28;20084;-43
2022/02/19 00:40:51;;;;;;;14.57;3.53;;;;;;;6.28;60.38;100375.00;4993504;28;20038;-45
2022/02/19 00:43:18;;;;;;;14.10;3.88;;;;;;;6.28;60.59;100368.78;4998920;28;20105;-44
2022/02/19 00:45:48;;;;;;;13.20;4.28;;;;;;;6.28;60.62;100383.13;5012545;28;20042;-45
2022/02/19 00:48:17;;;;;;;17.23;4.30;;;;;;;6.30;61.03;100396.38;5013012;28;20046;-45
2022/02/19 00:51:04;;;;;;;14.07;4.32;;;;;;;6.25;61.47;100405.22;5012190;28;20060;-44
2022/02/19 00:53:34;;;;;;;11.95;3.70;;;;;;;6.31;61.44;100390.72;4998068;28;20544;-45
2022/02/19 00:56:02;;;;;;;15.65;4.38;;;;;;;6.34;61.04;100406.44;4991890;28;20085;-45
2022/02/19 00:58:30;;;;;;;15.52;4.53;;;;;;;6.29;61.40;100398.25;4992258;28;20059;-44
2022/02/19 01:00:57;;;;;;;20.45;4.32;;;;;;;6.29;61.03;100429.91;4994783;28;20556;-44
2022/02/19 01:03:42;;;;;;;10.55;3.00;;;;;;;6.29;61.85;100422.63;4996687;28;20046;-44
2022/02/19 01:06:10;;;;;;;13.88;4.20;;;;;;;6.31;61.05;100444.84;4995530;28;20117;-43
2022/02/19 01:08:37;;;;;;;11.00;3.15;;;;;;;6.26;62.09;100431.25;4996685;28;20386;-43
2022/02/19 01:11:05;;;;;;;19.38;4.00;;;;;;;6.37;61.30;100441.16;4995628;28;20141;-44
2022/02/19 01:13:34;;;;;;;10.45;3.38;;;;;;;6.38;64.33;100421.13;5011713;28;20124;-44
2022/02/19 01:16:01;;;;;;;18.55;4.38;;;;;;;6.39;61.36;100438.97;5015945;28;20037;-43
2022/02/19 01:18:29;;;;;;;13.25;3.97;;;;;;;6.27;61.84;100468.03;5016038;28;20053;-44
2022/02/19 01:20:56;;;;;;;13.98;3.80;;;;;;;6.26;61.31;100441.25;5014849;28;20121;-44
2022/02/19 01:23:24;;;;;;;13.68;3.92;;;;;;;6.18;61.69;100464.94;5002794;28;20472;-45
2022/02/19 01:25:52;;;;;;;14.40;4.03;;;;;;;6.22;61.81;100469.84;4995281;28;20038;-43
2022/02/19 01:28:20;;;;;;;12.95;3.92;;;;;;;6.15;61.73;100470.00;4995315;28;20040;-43
2022/02/19 01:30:48;;;;;;;14.57;3.67;;;;;;;6.10;62.17;100483.47;4996169;28;20062;-43
2022/02/19 01:33:16;;;;;;;19.75;4.65;;;;;;;6.10;62.03;100472.66;4996129;28;20567;-43
2022/02/19 01:35:43;;;;;;;14.18;3.65;;;;;;;6.12;62.24;100465.09;4996169;28;20042;-43
2022/02/19 01:38:12;;;;;;;13.85;3.67;;;;;;;6.14;62.26;100501.66;4995116;28;20089;-44
2022/02/19 01:40:40;;;;;;;21.73;4.35;;;;;;;6.06;62.08;100504.78;4995006;28;20485;-44
2022/02/19 01:43:10;;;;;;;14.25;4.43;;;;;;;6.09;62.42;100503.47;4971459;28;20056;-45
2022/02/19 01:45:38;;;;;;;15.57;4.20;;;;;;;6.12;62.88;100513.78;5011174;28;20142;-44
2022/02/19 01:48:06;;;;;;;14.10;4.00;;;;;;;6.13;61.62;100515.44;5005923;28;20042;-45
2022/02/19 01:50:34;;;;;;;16.35;4.05;;;;;;;6.03;62.08;100515.25;4996149;28;20133;-44
2022/02/19 01:53:01;;;;;;;12.73;4.28;;;;;;;6.01;62.45;100528.22;4997046;28;20039;-44
2022/02/19 01:55:54;;;;;;;11.57;3.60;;;;;;;6.18;63.07;100543.41;4994944;28;20042;-44
2022/02/19 01:58:39;;;;;;;14.57;4.18;;;;;;;6.17;62.49;100543.63;4981078;28;20054;-45
2022/02/19 02:01:26;;;;;;;14.05;4.20;;;;;;;6.09;62.78;100566.50;4995172;28;20045;-44
2022/02/19 02:04:33;;;;;;;16.65;4.65;;;;;;;6.09;62.60;100573.81;5013974;28;20691;-41
2022/02/19 02:07:03;;;;;;;12.18;3.60;;;;;;;6.01;62.26;100563.38;5006134;28;20460;-41
2022/02/19 02:09:32;;;;;;;18.42;3.92;;;;;;;5.97;62.18;100571.97;4962373;28;20046;-44
2022/02/19 02:12:07;;;;;;;10.82;3.25;;;;;;;5.96;62.10;100562.22;4994855;28;20041;-44
2022/02/19 02:14:41;;;;;;;15.18;4.00;;;;;;;5.98;62.09;100597.13;5014112;28;20125;-43
2022/02/19 02:17:17;;;;;;;11.43;3.80;;;;;;;5.93;62.54;100584.31;5015314;28;20045;-43
2022/02/19 02:19:45;;;;;;;16.35;4.32;;;;;;;5.92;62.59;100601.59;5013712;28;20064;-44
2022/02/19 02:22:18;;;;;;;14.48;3.67;;;;;;;6.01;63.43;100591.22;5013248;28;20052;-41
2022/02/19 02:24:47;;;;;;;19.42;4.05;;;;;;;5.96;62.40;100591.97;5010572;28;20085;-42
2022/02/19 02:27:29;;;;;;;17.85;4.00;;;;;;;6.00;62.45;100586.06;4994709;28;20049;-43
2022/02/19 02:29:57;;;;;;;11.70;3.47;;;;;;;6.00;62.44;100621.22;4993883;28;20054;-43
2022/02/19 02:32:31;;;;;;;16.00;4.45;;;;;;;5.93;61.78;100618.63;4997874;28;20065;-43
2022/02/19 02:34:59;;;;;;;17.75;4.30;;;;;;;5.89;62.70;100599.38;5012080;28;20081;-42
2022/02/19 02:37:34;;;;;;;15.30;4.10;;;;;;;5.92;62.78;100617.81;5013367;28;20128;-43
2022/02/19 02:40:02;;;;;;;17.30;4.03;;;;;;;5.93;62.63;100607.81;5014547;28;20041;-43
2022/02/19 02:42:34;;;;;;;11.57;3.30;;;;;;;5.90;62.65;100613.72;5009051;28;20050;-44
2022/02/19 02:45:07;;;;;;;12.40;3.45;;;;;;;5.90;62.48;100630.75;4994071;28;20576;-43
2022/02/19 02:47:56;;;;;;;10.27;2.90;;;;;;;5.94;64.34;100615.75;4993539;28;20042;-43
2022/02/19 02:50:28;;;;;;;12.70;3.42;;;;;;;5.90;62.18;100630.75;4993861;28;20054;-44
2022/02/19 02:53:17;;;;;;;12.18;3.58;;;;;;;5.87;62.69;100647.47;4999344;28;20049;-44
2022/02/19 02:55:44;;;;;;;12.82;3.47;;;;;;;5.89;62.80;100656.16;4997167;28;20373;-44
2022/02/19 02:58:12;;;;;;;14.02;3.92;;;;;;;5.90;62.78;100662.41;4969417;28;20049;-45
2022/02/19 03:00:40;;;;;;;16.55;3.88;;;;;;;5.89;63.06;100656.16;4993715;28;20042;-43
2022/02/19 03:03:08;;;;;;;15.20;3.92;;;;;;;5.85;62.66;100665.00;4993590;28;20493;-43
2022/02/19 03:05:36;;;;;;;12.75;3.85;;;;;;;5.89;63.05;100668.84;5013019;28;20403;-41
2022/02/19 03:08:04;;;;;;;15.15;3.88;;;;;;;5.91;62.97;100677.53;5013165;28;20124;-44
2022/02/19 03:10:32;;;;;;;16.85;3.85;;;;;;;5.84;63.05;100674.97;5014106;28;20140;-43
2022/02/19 03:13:00;;;;;;;10.73;2.80;;;;;;;5.84;63.51;100674.97;5012687;28;20038;-42
2022/02/19 03:15:28;;;;;;;13.68;3.97;;;;;;;5.84;63.35;100702.00;5010869;28;20049;-44
2022/02/19 03:17:56;;;;;;;13.10;3.53;;;;;;;5.82;63.82;100693.34;5012648;28;20085;-44
2022/02/19 03:20:26;;;;;;;14.57;4.00;;;;;;;5.80;63.90;100706.28;5012895;28;20052;-43
2022/02/19 03:22:54;;;;;;;15.80;3.97;;;;;;;5.81;64.06;100707.91;5012922;28;20061;-43
2022/02/19 03:25:22;;;;;;;14.85;3.83;;;;;;;5.83;64.26;100713.09;4985042;28;20509;-44
2022/02/19 03:27:55;;;;;;;11.32;3.53;;;;;;;5.93;63.62;100706.00;4993072;28;20038;-42
2022/02/19 03:30:29;;;;;;;15.18;4.03;;;;;;;5.84;63.63;100723.63;4992658;28;20080;-43
2022/02/19 03:32:59;;;;;;;14.18;3.72;;;;;;;5.95;63.54;100741.75;4993226;28;20464;-43
2022/02/19 03:35:27;;;;;;;15.30;4.03;;;;;;;5.89;63.45;100736.44;4994164;28;20125;-42
2022/02/19 03:37:55;;;;;;;16.45;3.92;;;;;;;5.85;63.59;100741.53;4992801;28;20042;-44
2022/02/19 03:40:40;;;;;;;12.65;3.90;;;;;;;5.85;63.82;100746.94;4992794;28;20046;-44
2022/02/19 03:43:08;;;;;;;14.13;3.85;;;;;;;5.85;64.12;100746.94;4976530;28;20051;-43
2022/02/19 03:45:39;;;;;;;21.30;5.00;;;;;;;5.85;64.06;100765.03;4978496;28;20052;-42
2022/02/19 03:48:30;;;;;;;17.00;4.03;;;;;;;5.84;63.87;100761.50;4993725;28;20058;-43
2022/02/19 03:50:58;;;;;;;12.82;3.50;;;;;;;5.83;63.51;100759.88;4992778;28;20053;-43
2022/02/19 03:53:26;;;;;;;20.63;4.57;;;;;;;5.77;63.65;100793.25;4993121;28;20091;-44
2022/02/19 03:55:54;;;;;;;16.15;4.00;;;;;;;5.80;63.13;100775.72;4994501;28;20105;-43
2022/02/19 03:58:21;;;;;;;13.10;4.03;;;;;;;5.74;63.26;100793.72;4992682;28;20034;-43
2022/02/19 04:00:52;;;;;;;18.30;3.60;;;;;;;5.73;63.17;100803.72;4992856;28;20057;-45
2022/02/19 04:03:20;;;;;;;13.63;3.85;;;;;;;5.76;63.39;100819.47;4992529;28;20047;-44
2022/02/19 04:05:48;;;;;;;14.43;4.60;;;;;;;5.70;63.18;100812.31;5000169;28;20042;-44
2022/02/19 04:08:18;;;;;;;24.20;4.82;;;;;;;5.70;62.55;100820.41;5012083;28;20066;-44
2022/02/19 04:10:50;;;;;;;21.38;4.30;;;;;;;5.68;62.98;100816.31;5012068;28;20396;-44
2022/02/19 04:13:20;;;;;;;18.05;4.63;;;;;;;5.65;62.41;100825.72;5011950;28;20046;-44
2022/02/19 04:16:03;;;;;;;18.83;4.43;;;;;;;5.75;62.14;100827.81;5005648;28;20038;-41
2022/02/19 04:18:33;;;;;;;18.67;5.07;;;;;;;5.69;61.28;100829.56;4992613;28;20393;-42
2022/02/19 04:21:02;;;;;;;19.13;4.38;;;;;;;5.70;60.38;100827.69;4993645;28;20490;-44
2022/02/19 04:23:29;;;;;;;15.65;4.20;;;;;;;5.68;60.32;100836.03;4976450;28;20097;-44
2022/02/19 04:26:03;;;;;;;13.98;3.63;;;;;;;5.68;60.42;100846.84;5004094;28;20060;-43
2022/02/19 04:28:41;;;;;;;12.55;3.70;;;;;;;5.66;60.31;100845.44;5011823;28;20077;-42
2022/02/19 04:31:11;;;;;;;14.45;3.85;;;;;;;5.66;61.00;100850.84;5008367;28;20137;-42
2022/02/19 04:33:39;;;;;;;18.77;4.88;;;;;;;5.67;61.27;100847.91;4993674;28;20125;-43
2022/02/19 04:36:07;;;;;;;13.40;4.10;;;;;;;5.70;61.13;100852.00;5014850;28;20448;-42
2022/02/19 04:38:39;;;;;;;13.98;3.78;;;;;;;5.69;61.47;100872.81;5015707;28;20044;-44
2022/02/19 04:41:06;;;;;;;15.50;4.05;;;;;;;5.71;61.60;100881.53;5015821;28;20040;-44
2022/02/19 04:43:35;;;;;;;15.00;4.15;;;;;;;5.67;61.36;100885.75;5015270;28;20042;-44
2022/02/19 04:46:08;;;;;;;16.70;3.78;;;;;;;5.69;61.96;100875.53;5013997;28;20133;-44
2022/02/19 04:48:38;;;;;;;16.20;4.28;;;;;;;5.72;61.23;100887.75;5015643;28;20053;-42
2022/02/19 04:51:06;;;;;;;16.48;4.30;;;;;;;5.72;61.77;100895.84;5015529;28;20042;-43
2022/02/19 04:53:33;;;;;;;18.60;4.35;;;;;;;5.80;63.09;100898.22;5015652;28;20092;-42
2022/02/19 04:56:01;;;;;;;14.18;4.15;;;;;;;5.67;62.84;100901.16;5013606;28;20129;-43
2022/02/19 04:58:30;;;;;;;8.88;3.08;;;;;;;5.72;64.69;100899.41;5015307;28;20046;-43
2022/02/19 05:00:58;;;;;;;13.82;4.07;;;;;;;5.64;64.11;100907.03;5015454;28;20154;-43
2022/02/19 05:03:56;;;;;;;12.18;3.10;;;;;;;5.69;65.25;100923.38;5020040;28;20041;-44
2022/02/19 05:06:42;;;;;;;14.05;3.85;;;;;;;5.60;65.48;100919.34;4994044;28;20563;-45
2022/02/19 05:09:11;;;;;;;15.75;4.40;;;;;;;5.50;66.08;100933.44;4995380;28;20046;-43
2022/02/19 05:11:46;;;;;;;16.10;3.70;;;;;;;5.48;66.75;100944.50;4995713;28;20039;-44
2022/02/19 05:14:14;;;;;;;13.57;3.63;;;;;;;5.45;66.78;100942.22;4995083;28;20097;-44
2022/02/19 05:16:45;;;;;;;15.15;3.90;;;;;;;5.58;66.09;100945.78;4996959;28;20129;-45
2022/02/19 05:19:14;;;;;;;13.45;3.65;;;;;;;5.54;66.87;100948.97;4995450;28;20050;-43
2022/02/19 05:21:42;;;;;;;19.35;4.60;;;;;;;5.51;67.46;100946.72;4995296;28;20070;-45
2022/02/19 05:24:13;;;;;;;19.73;4.18;;;;;;;5.45;68.08;100952.22;4995622;28;20100;-42
2022/02/19 05:26:47;;;;;;;13.95;3.75;;;;;;;5.54;68.61;100957.06;4996950;28;20042;-45
2022/02/19 05:29:18;;;;;;;16.65;4.60;;;;;;;5.45;66.78;100955.75;5014723;28;20045;-49
2022/02/19 05:31:47;;;;;;;19.75;4.65;;;;;;;5.43;67.04;100957.84;5014382;28;20054;-45
2022/02/19 05:34:35;;;;;;;16.92;4.38;;;;;;;5.39;67.00;100953.97;5015557;28;20065;-44
2022/02/19 05:37:05;;;;;;;19.08;4.45;;;;;;;5.43;66.65;100955.16;4997114;28;20500;-42
2022/02/19 05:39:39;;;;;;;16.48;3.92;;;;;;;5.49;66.79;100961.53;4994842;28;20046;-43
2022/02/19 05:42:11;;;;;;;17.63;4.25;;;;;;;5.50;66.22;100965.88;4994809;28;20054;-43
2022/02/19 05:44:39;;;;;;;19.30;4.28;;;;;;;5.54;66.47;100973.28;4994675;28;20085;-43
2022/02/19 05:47:09;;;;;;;18.67;4.10;;;;;;;5.57;65.86;100968.47;4995205;28;20073;-44
2022/02/19 05:49:42;;;;;;;20.73;4.03;;;;;;;5.52;65.37;100986.19;4994865;28;20039;-45
2022/02/19 05:52:14;;;;;;;12.13;3.85;;;;;;;5.51;64.52;100981.84;4994578;28;20042;-43
2022/02/19 05:54:56;;;;;;;15.00;3.58;;;;;;;5.53;65.72;100968.09;4980738;28;20060;-44
2022/02/19 05:57:28;;;;;;;20.42;4.90;;;;;;;5.51;65.70;100987.25;4994779;28;20039;-43
2022/02/19 05:59:56;;;;;;;13.75;3.88;;;;;;;5.52;65.36;100988.91;4994515;28;20046;-43
2022/02/19 06:02:24;;;;;;;14.10;3.80;;;;;;;5.59;65.30;100988.00;4994715;28;20066;-43
2022/02/19 06:04:52;;;;;;;16.38;4.45;;;;;;;5.54;65.41;100991.38;4994277;28;20120;-43
2022/02/19 06:07:19;;;;;;;13.90;3.63;;;;;;;5.59;65.72;100999.63;4996544;28;20121;-43
2022/02/19 06:09:47;;;;;;;15.93;3.80;;;;;;;5.57;65.20;101003.59;4994429;28;20043;-44
2022/02/19 06:12:15;;;;;;;14.55;4.22;;;;;;;5.61;65.65;101007.50;4994422;28;20042;-43
2022/02/19 06:14:52;;;;;;;13.57;3.83;;;;;;;5.60;65.57;100993.16;4979631;28;20129;-45
2022/02/19 06:17:25;;;;;;;14.07;3.75;;;;;;;5.57;65.21;101004.44;4995061;28;20412;-45
2022/02/19 06:19:53;;;;;;;14.68;3.90;;;;;;;5.53;65.34;101008.63;4994339;28;20425;-44
2022/02/19 06:22:21;;;;;;;13.20;3.88;;;;;;;5.52;65.78;101002.41;4994186;28;20130;-45
2022/02/19 06:24:50;;;;;;;20.23;4.90;;;;;;;5.56;66.35;101013.59;4994222;28;20129;-45
2022/02/19 06:27:19;;;;;;;13.15;3.90;;;;;;;5.64;66.90;101009.75;4994972;28;20576;-43
2022/02/19 06:30:01;;;;;;;18.60;3.85;;;;;;;5.60;65.56;101019.34;4977891;28;20057;-42
2022/02/19 06:32:43;;;;;;;18.13;4.00;;;;;;;5.61;65.68;101023.72;4993642;28;20061;-43
2022/02/19 06:35:11;;;;;;;15.68;3.95;;;;;;;5.58;66.47;101026.88;4993609;28;20445;-43
2022/02/19 06:37:44;;;;;;;12.40;4.03;;;;;;;5.50;66.27;101036.94;4995006;28;20046;-43
2022/02/19 06:40:15;;;;;;;20.70;4.15;;;;;;;5.55;66.38;101042.47;4993637;28;20051;-43
2022/02/19 06:42:44;;;;;;;14.93;3.75;;;;;;;5.52;66.96;101040.25;4993483;28;20409;-44
2022/02/19 06:45:26;;;;;;;20.23;3.65;;;;;;;5.83;69.98;101051.88;4995235;28;20043;-42
2022/02/19 06:47:55;;;;;;;14.68;3.45;;;;;;;5.67;66.54;101049.81;4995193;28;20043;-45
2022/02/19 06:50:27;;;;;;;13.63;3.63;;;;;;;5.68;66.91;101059.59;4993743;28;20118;-45
2022/02/19 06:52:59;;;;;;;13.90;4.00;;;;;;;5.64;67.79;101061.09;4993704;28;20046;-44
2022/02/19 06:55:28;;;;;;;10.00;3.15;;;;;;;5.63;68.37;101070.25;4977674;28;20046;-43
2022/02/19 06:57:57;;;;;;;14.85;3.92;;;;;;;5.64;69.02;101074.63;4994666;28;20489;-43
2022/02/19 07:00:29;;;;;;;17.13;4.00;;;;;;;5.62;69.40;101077.53;4984926;28;20441;-45
2022/02/19 07:03:00;;;;;;;18.13;4.28;;;;;;;5.63;69.53;101079.22;4992888;28;20077;-45
2022/02/19 07:05:32;;;;;;;14.77;4.22;;;;;;;5.58;69.61;101080.94;4993184;28;20053;-43
2022/02/19 07:08:12;;;;;;;14.10;3.95;;;;;;;5.61;70.62;101092.13;4992423;28;20042;-45
2022/02/19 07:10:40;;;;;;;15.35;4.13;;;;;;;5.58;70.17;101098.00;5000962;28;20050;-45
2022/02/19 07:13:08;;;;;;;13.23;4.45;;;;;;;5.58;70.60;101097.13;5006645;28;20042;-44
2022/02/19 07:15:36;;;;;;;17.33;4.45;;;;;;;5.58;70.53;101100.69;4994286;28;20450;-42
2022/02/19 07:18:29;;;;;;;15.25;4.10;;;;;;;5.58;70.44;101107.94;4992390;28;20069;-44
2022/02/19 07:21:06;;;;;;;15.95;3.50;;;;;;;5.59;70.26;101115.03;4993665;28;20057;-45
2022/02/19 07:23:34;;;;;;;13.55;3.92;;;;;;;5.58;70.25;101116.06;4998136;28;20043;-42
2022/02/19 07:26:03;;;;;;;16.10;3.90;;;;;;;5.58;70.31;101129.56;5008153;28;20129;-43
2022/02/19 07:28:34;;;;;;;14.38;3.78;;;;;;;5.58;70.58;101130.44;5023796;28;20042;-45
2022/02/19 07:31:02;;;;;;;14.38;3.83;;;;;;;5.62;70.72;101131.59;4993809;28;20053;-43
2022/02/19 07:33:30;;;;;;;12.32;3.85;;;;;;;5.60;71.10;101132.88;5007842;28;20046;-44
2022/02/19 07:36:01;;;;;;;11.60;3.60;;;;;;;5.71;70.56;101134.81;4992789;28;20043;-45
2022/02/19 07:38:31;;;;;;;15.50;4.20;;;;;;;5.65;70.10;101135.72;4993313;28;20416;-43
2022/02/19 07:40:58;;;;;;;14.20;4.22;;;;;;;5.68;70.46;101143.41;4992800;28;20050;-44
2022/02/19 07:43:45;;;;;;;14.90;3.65;;;;;;;5.65;69.85;101146.53;5001966;28;20046;-46
2022/02/19 07:46:29;;;;;;;21.63;4.20;;;;;;;5.69;69.89;101153.97;4992754;28;20050;-44
2022/02/19 08:00:39;;;;;;;;;;;;;;;5.80;71.32;101178.59;5012498;28;20546;-42
2022/02/19 08:03:08;;;;;;;15.45;4.35;;;;;;;5.73;70.34;101176.81;5000143;28;19922;-43
2022/02/19 08:05:37;;;;;;;13.88;3.97;;;;;;;5.77;70.68;101177.16;4992304;28;20081;-42
2022/02/19 08:08:04;;;;;;;17.67;4.60;;;;;;;5.78;70.41;101189.66;5008903;28;20046;-41
2022/02/19 08:10:32;;;;;;;16.25;4.60;;;;;;;5.79;71.42;101202.09;4993142;28;20062;-42
2022/02/19 08:13:00;;;;;;;25.83;8.38;;;;;;;5.86;73.40;101196.63;5013657;28;20045;-43
2022/02/19 08:15:28;;;;;;;37.03;9.45;;;;;;;5.81;71.53;101200.00;5017277;28;20132;-43
2022/02/19 08:17:55;;;;;;;26.30;7.55;;;;;;;5.90;71.31;101203.22;5016076;28;20040;-44
2022/02/19 08:20:25;;;;;;;16.65;5.45;;;;;;;5.96;76.19;101194.22;5017007;28;20054;-41
2022/02/19 08:22:53;;;;;;;18.00;5.28;;;;;;;6.33;77.40;101203.09;5015622;28;20049;-46
2022/02/19 08:25:20;;;;;;;16.50;4.50;;;;;;;6.16;71.18;101207.50;5017021;28;20049;-43
2022/02/19 08:27:48;;;;;;;17.92;5.20;;;;;;;6.02;70.99;101206.03;5016574;28;20044;-45
2022/02/19 08:30:16;;;;;;;14.80;4.35;;;;;;;5.93;71.93;101210.88;5017111;28;20077;-43
2022/02/19 08:32:43;;;;;;;16.80;4.50;;;;;;;5.84;71.02;101231.97;5015405;28;20053;-44
2022/02/19 08:35:11;;;;;;;13.65;5.32;;;;;;;5.93;72.66;101224.41;5017098;28;20124;-42
2022/02/19 08:37:39;;;;;;;17.17;4.10;;;;;;;5.88;71.43;101233.19;5016418;28;20485;-45
2022/02/19 08:40:10;;;;;;;16.80;5.03;;;;;;;5.85;71.62;101239.06;5017035;28;20050;-44
2022/02/19 08:42:39;;;;;;;17.50;4.63;;;;;;;5.92;72.78;101234.41;5004609;28;20047;-43
2022/02/19 08:45:07;;;;;;;15.27;4.57;;;;;;;5.99;72.35;101237.06;5006697;28;20065;-44
2022/02/19 08:47:40;;;;;;;10.15;3.90;;;;;;;5.91;71.04;101242.72;5014831;28;20070;-45
2022/02/19 08:50:11;;;;;;;17.70;5.07;;;;;;;6.22;73.33;101236.31;5016524;28;20072;-46
2022/02/19 08:52:40;;;;;;;16.50;4.65;;;;;;;6.09;71.26;101244.63;5014956;28;20046;-46
2022/02/19 08:55:11;;;;;;;17.63;5.20;;;;;;;6.53;90.38;101239.84;4995427;28;20046;-44
2022/02/19 08:57:39;;;;;;;16.58;4.32;;;;;;;6.48;72.21;101247.84;4995814;28;20050;-43
2022/02/19 09:00:10;;;;;;;14.90;4.53;;;;;;;6.26;71.55;101245.66;4996781;28;20074;-46
2022/02/19 09:02:38;;;;;;;16.73;5.10;;;;;;;6.13;71.29;101252.06;4996533;28;20521;-43
2022/02/19 09:05:07;;;;;;;15.00;4.20;;;;;;;6.18;70.50;101248.66;5003133;28;20404;-44
2022/02/19 09:07:36;;;;;;;16.00;3.97;;;;;;;6.07;70.83;101257.56;5016514;28;20050;-44
2022/02/19 09:10:05;;;;;;;12.02;4.15;;;;;;;6.03;70.32;101262.56;5014821;28;20058;-44
2022/02/19 09:12:33;;;;;;;13.05;4.05;;;;;;;6.19;71.56;101261.16;5014121;28;20447;-46
2022/02/19 09:15:01;;;;;;;12.20;3.85;;;;;;;6.08;70.38;101264.59;5007575;28;20049;-43
2022/02/19 09:17:29;;;;;;;13.63;3.80;;;;;;;6.13;71.24;101262.91;4995556;28;20046;-45
2022/02/19 09:19:56;;;;;;;15.25;3.97;;;;;;;6.16;71.75;101261.59;4996403;28;20396;-46
2022/02/19 09:22:24;;;;;;;21.20;4.25;;;;;;;6.06;70.49;101266.72;5010600;28;20117;-44
2022/02/19 09:24:52;;;;;;;15.52;4.60;;;;;;;6.00;70.06;101262.22;5014289;28;20056;-42
2022/02/19 09:27:19;;;;;;;15.48;3.92;;;;;;;5.94;70.23;101262.06;4994814;28;20058;-46
2022/02/19 09:29:47;;;;;;;12.27;4.00;;;;;;;6.09;71.02;101266.28;4996288;28;20066;-45
2022/02/19 09:32:15;;;;;;;20.05;5.53;;;;;;;6.24;72.14;101263.16;4996827;28;20070;-44
2022/02/19 09:34:43;;;;;;;15.88;4.57;;;;;;;6.31;70.53;101263.91;5003027;28;20045;-48
2022/02/19 09:37:11;;;;;;;14.15;3.83;;;;;;;6.27;69.93;101277.06;5015613;28;20069;-44
2022/02/19 09:39:39;;;;;;;11.15;3.97;;;;;;;6.25;69.34;101271.03;5015512;28;20069;-46
2022/02/19 09:42:08;;;;;;;15.77;4.20;;;;;;;6.32;70.34;101279.91;5001111;28;20050;-45
2022/02/19 09:44:36;;;;;;;14.25;4.40;;;;;;;6.32;70.77;101271.78;4998207;28;20069;-45
2022/02/19 09:47:06;;;;;;;12.82;3.78;;;;;;;6.35;69.74;101271.34;5015524;28;20042;-44
2022/02/19 09:49:35;;;;;;;16.95;4.20;;;;;;;6.37;70.20;101279.22;5014249;28;20076;-45
2022/02/19 09:52:03;;;;;;;16.73;4.22;;;;;;;6.43;71.53;101272.91;5013342;28;20390;-45
2022/02/19 09:54:31;;;;;;;12.85;4.10;;;;;;;6.47;69.58;101284.94;5013349;28;20042;-43
2022/02/19 09:56:59;;;;;;;16.15;4.30;;;;;;;6.51;71.90;101277.16;5015316;28;20038;-46
2022/02/19 09:59:27;;;;;;;22.98;5.28;;;;;;;6.43;69.25;101285.59;5014083;28;20141;-45
2022/02/19 10:02:04;;;;;;;13.32;4.25;;;;;;;6.41;69.16;101288.53;5000210;28;20484;-45
2022/02/19 10:04:32;;;;;;;16.95;4.68;;;;;;;6.42;70.47;101286.66;4995170;28;20069;-43
2022/02/19 10:07:15;;;;;;;33.33;8.20;;;;;;;6.45;71.43;101297.84;4995301;28;20134;-44
2022/02/19 10:09:45;;;;;;;17.80;4.65;;;;;;;6.49;69.29;101298.22;4994673;28;20045;-43
2022/02/19 10:12:15;;;;;;;22.95;6.00;;;;;;;6.49;74.15;101287.38;5003186;28;20073;-43
2022/02/19 10:14:44;;;;;;;20.58;4.63;;;;;;;6.53;69.78;101294.00;4997930;28;20066;-43
2022/02/19 10:17:22;;;;;;;13.95;4.28;;;;;;;6.39;68.44;101290.63;4996658;28;20034;-43
2022/02/19 10:20:00;;;;;;;15.63;4.22;;;;;;;6.31;68.82;101296.38;4995128;28;20133;-45
2022/02/19 10:22:28;;;;;;;14.95;4.18;;;;;;;6.23;68.99;101294.81;4995437;28;20052;-44
2022/02/19 10:25:01;;;;;;;15.02;3.92;;;;;;;6.23;69.52;101300.22;5004707;28;20041;-45
2022/02/19 10:27:46;;;;;;;13.90;3.78;;;;;;;6.24;68.78;101291.03;5013507;28;20072;-43
2022/02/19 10:30:18;;;;;;;16.33;4.90;;;;;;;6.30;68.71;101295.56;5014746;28;20045;-45
2022/02/19 10:33:00;;;;;;;22.48;5.63;;;;;;;6.71;72.59;101299.38;5014123;28;20057;-44
2022/02/19 10:35:42;;;;;;;17.83;4.20;;;;;;;6.60;68.85;101302.84;4993481;28;20513;-45
2022/02/19 10:38:13;;;;;;;17.35;4.85;;;;;;;6.79;71.15;101288.19;4995058;28;20062;-41
2022/02/19 10:40:50;;;;;;;15.88;3.78;;;;;;;6.65;67.83;101308.41;4999459;28;20047;-42
2022/02/19 10:43:20;;;;;;;14.25;3.55;;;;;;;6.57;67.36;101306.03;4997178;28;20517;-42
2022/02/19 10:45:57;;;;;;;18.60;4.50;;;;;;;6.62;67.84;101308.88;4983400;28;20105;-43
2022/02/19 10:48:26;;;;;;;;;;;;;;;6.67;74.03;101310.91;5008813;28;20121;-44
2022/02/19 10:51:07;;;;;;;16.48;4.55;;;;;;;6.59;67.49;101304.75;4993482;28;19922;-44
2022/02/19 10:53:36;;;;;;;15.43;4.15;;;;;;;6.57;67.71;101314.16;5002183;28;20041;-45
2022/02/19 10:56:12;;;;;;;14.50;4.43;;;;;;;6.60;67.34;101308.28;5013314;28;20088;-46
2022/02/19 10:58:58;;;;;;;13.97;3.40;;;;;;;6.63;67.00;101315.94;5000931;28;20500;-45
2022/02/19 11:01:27;;;;;;;14.65;4.72;;;;;;;6.97;70.66;101327.94;4994670;28;20112;-44
2022/02/19 11:03:54;;;;;;;13.82;3.67;;;;;;;7.02;65.54;101335.38;4995385;28;20133;-45
2022/02/19 11:06:22;;;;;;;13.15;3.75;;;;;;;6.77;63.96;101332.81;4994553;28;20070;-44
2022/02/19 11:08:50;;;;;;;15.10;3.83;;;;;;;6.74;64.76;101336.81;4999482;28;20053;-41
2022/02/19 11:11:23;;;;;;;13.18;3.78;;;;;;;6.75;64.81;101329.50;4993427;28;20047;-45
2022/02/19 11:13:51;;;;;;;14.20;4.30;;;;;;;6.78;63.29;101327.19;4991135;28;20045;-44
2022/02/19 11:16:20;;;;;;;12.73;4.22;;;;;;;7.00;64.13;101316.66;4994041;28;20046;-44
2022/02/19 11:18:47;;;;;;;15.82;3.97;;;;;;;7.10;63.74;101305.25;4995049;28;20468;-43
2022/02/19 11:21:35;;;;;;;16.75;4.50;;;;;;;7.07;62.97;101305.72;4998864;28;20061;-44
2022/02/19 11:24:08;;;;;;;11.45;3.70;;;;;;;7.12;63.58;101319.38;5000802;28;20042;-44
2022/02/19 11:26:37;;;;;;;18.08;5.00;;;;;;;7.33;65.33;101314.44;5013996;28;20129;-44
2022/02/19 11:29:11;;;;;;;16.25;3.63;;;;;;;7.19;62.28;101328.25;5010011;28;20117;-45
2022/02/19 11:31:39;;;;;;;19.15;5.05;;;;;;;7.21;64.47;101323.38;5009731;28;20048;-45
2022/02/19 11:34:08;;;;;;;21.67;4.75;;;;;;;7.21;63.59;101314.44;5012308;28;20138;-44
2022/02/19 11:36:35;;;;;;;11.23;3.60;;;;;;;7.08;62.04;101314.66;5012871;28;20066;-45
2022/02/19 11:39:05;;;;;;;20.90;4.50;;;;;;;7.07;62.18;101318.41;5013356;28;20555;-45
2022/02/19 11:41:43;;;;;;;12.77;3.65;;;;;;;7.13;62.37;101309.38;4995470;28;20054;-45
2022/02/19 11:44:19;;;;;;;16.17;3.58;;;;;;;7.10;61.61;101320.69;4999968;28;20104;-43
2022/02/19 11:46:48;;;;;;;12.48;4.28;;;;;;;7.14;62.96;101317.25;5008493;28;20030;-43
2022/02/19 11:49:20;;;;;;;12.65;3.72;;;;;;;7.16;62.12;101308.91;5008419;28;20057;-43
2022/02/19 11:52:11;;;;;;;10.38;3.55;;;;;;;7.17;61.11;101305.97;5011193;28;20052;-43
2022/02/19 11:55:32;;;;;;;13.27;3.53;;;;;;;7.18;60.14;101294.03;4993574;28;20508;-44
2022/02/19 11:58:01;;;;;;;17.55;5.00;;;;;;;7.27;62.80;101293.72;5006672;28;20121;-44